Capitol Logistics 221


KSMF
Sacramento International Airport
Sacramento, California, US
KRIV
March Air Reserve Base
Riverside, California, US

Activity Log

Date Flight Route Aircraft Duration
03/01/2019 CPX221 FTHIL2 FRA EHF J65 PMD MARCH4 B763 1h 27m

Route Details

Aircraft Information
Primary: Boeing 767-300BDSF
Backup: Not Available
Route Data
Distance: 362nm
Sched. Duration: 1h 14m
Avg. Duration: 1h 27m (+12m)
Times Flown: 1
Recm'd Route: FTHIL2 FRA EHF J65 PMD MARCH4
Planned Altitude: 37,000ft
Origin Wx: KSMF 200253Z 00000KT 10SM CLR 23/08 A2989 RMK AO2 SLP120 T02330078 53002
Dest. Wx: KRIV 200258Z AUTO 32005KT 10SM CLR 19/14 A2994 RMK AO2 SLP132 T01890135 53009
Notes:

Financial History
Total Freight: 85,502lbs
Average Load: 85,502lbs/flt
Fuel Used: 14,595lbs
Avg. Fuel Used: 14,595lbs/flt
Fuel Expense: $15,909
Avg. Fuel Expense: $15,909
Avg. Fuel Cost: $1.09/lbs
Total Gross Income: $103,457
Pilot Pay: $229
Total Expenses: $11,225
Total Revenue: $75,977
Average Revenue: $103,457.42